Time;durP1;ratioP1;P1;durP2;ratioP2;P2;SDS_P1;SDS_P2;PMS_P1;PMS_P2;Temp;Humidity;BMP_temperature;BMP_pressure;BME280_temperature;BME280_humidity;BME280_pressure;Samples;Min_cycle;Max_cycle;Signal;HPM_P1;HPM_P2
2022/12/15 00:40:19;;;;;;;;;;;-3272.90;82.00;;;;;;5076502;28;19958;-79
2022/12/15 00:42:44;;;;;;;;;;;-3272.90;82.40;;;;;;5086690;28;20265;-77
2022/12/15 00:45:10;;;;;;;;;;;-3272.80;82.60;;;;;;5088583;28;19934;-76
2022/12/15 00:47:35;;;;;;;;;;;-3272.80;82.70;;;;;;5082729;28;19966;-76
2022/12/15 01:20:17;;;;;;;;;;;-3273.40;83.30;;;;;;5091325;28;19970;-79
2022/12/15 01:22:46;;;;;;;;;;;-3273.40;83.50;;;;;;5093454;28;19962;-77
2022/12/15 01:25:12;;;;;;;;;;;-3273.50;83.20;;;;;;5071678;28;20367;-77
2022/12/15 01:27:38;;;;;;;;;;;-3273.50;83.00;;;;;;5089761;28;19907;-79
2022/12/15 01:30:04;;;;;;;;;;;-3273.50;82.70;;;;;;5087492;28;19912;-79
2022/12/15 01:32:29;;;;;;;;;;;-3273.40;82.70;;;;;;5094874;28;19999;-79
2022/12/15 01:34:55;;;;;;;;;;;-3273.50;82.60;;;;;;5087792;28;19919;-79
2022/12/15 01:37:20;;;;;;;;;;;-3273.60;82.20;;;;;;5093812;28;19958;-79
2022/12/15 01:42:30;;;;;;;;;;;-3273.50;82.20;;;;;;5085791;28;19974;-79
2022/12/15 01:45:16;;;;;;;;;;;-3273.60;81.90;;;;;;5090476;28;19916;-79
2022/12/15 01:47:41;;;;;;;;;;;-3273.50;81.80;;;;;;5093964;28;19919;-78
2022/12/15 01:50:12;;;;;;;;;;;-3273.50;81.90;;;;;;5082302;28;20014;-80
2022/12/15 01:52:37;;;;;;;;;;;-3273.50;81.90;;;;;;5079686;28;19916;-81
2022/12/15 01:55:04;;;;;;;;;;;-3273.40;81.70;;;;;;5075627;28;19938;-79
2022/12/15 01:57:31;;;;;;;;;;;-3273.50;82.00;;;;;;5086740;28;20367;-79
2022/12/15 01:59:58;;;;;;;;;;;-3273.40;82.00;;;;;;5078923;28;19912;-79
2022/12/15 02:02:25;;;;;;;;;;;-3273.50;81.80;;;;;;5072910;28;19921;-79
2022/12/15 02:04:52;;;;;;;;;;;-3273.50;81.80;;;;;;5069224;28;20025;-78
2022/12/15 02:07:18;;;;;;;;;;;-3273.50;81.60;;;;;;5071950;28;19923;-79
2022/12/15 02:09:45;;;;;;;;;;;-3273.40;81.50;;;;;;5072044;28;19921;-79
2022/12/15 02:12:29;;;;;;;;;;;-3273.40;81.60;;;;;;5073071;28;20399;-79
2022/12/15 02:15:04;;;;;;;;;;;-3273.40;81.80;;;;;;5072788;28;19919;-79
2022/12/15 02:17:36;;;;;;;;;;;-3273.50;82.00;;;;;;5073486;28;19912;-80
2022/12/15 02:20:25;;;;;;;;;;;-3273.60;81.60;;;;;;5076971;28;19920;-79
2022/12/15 02:23:06;;;;;;;;;;;-3273.70;81.50;;;;;;5078731;28;19921;-78
2022/12/15 02:25:53;;;;;;;;;;;-3273.70;81.40;;;;;;5087516;28;19988;-78
2022/12/15 02:28:30;;;;;;;;;;;-3273.70;81.20;;;;;;5072771;28;19980;-78
2022/12/15 02:33:45;;;;;;;;;;;-3273.60;80.80;;;;;;5074818;28;20009;-78
2022/12/15 02:36:13;;;;;;;;;;;-3273.60;80.50;;;;;;5075695;28;20018;-79
2022/12/15 02:38:42;;;;;;;;;;;-3273.60;80.70;;;;;;5080223;28;19939;-79
2022/12/15 02:41:26;;;;;;;;;;;-3273.60;80.50;;;;;;5079492;28;19924;-79
2022/12/15 02:43:52;;;;;;;;;;;-3273.60;80.60;;;;;;5078787;28;19935;-79
2022/12/15 02:46:30;;;;;;;;;;;-3273.60;80.30;;;;;;5074805;28;19912;-78
2022/12/15 02:49:12;;;;;;;;;;;-3273.60;80.50;;;;;;5075345;28;19920;-79
2022/12/15 02:52:16;;;;;;;;;;;-3273.70;80.50;;;;;;5073315;28;19923;-79
2022/12/15 02:54:47;;;;;;;;;;;-3273.60;80.70;;;;;;5014461;28;19914;-79
2022/12/15 02:57:25;;;;;;;;;;;-3273.60;80.20;;;;;;4995768;28;19921;-79
2022/12/15 03:00:00;;;;;;;;;;;-3273.60;80.50;;;;;;5032033;28;19912;-80
2022/12/15 03:02:27;;;;;;;;;;;-3273.60;80.30;;;;;;5083829;28;19912;-78
2022/12/15 03:04:53;;;;;;;;;;;-3273.50;80.20;;;;;;5069708;28;19973;-78
2022/12/15 03:07:21;;;;;;;;;;;-3273.50;80.40;;;;;;5070145;28;19916;-79
2022/12/15 03:09:47;;;;;;;;;;;-3273.40;80.20;;;;;;5064784;28;19928;-78
2022/12/15 03:12:12;;;;;;;;;;;-3273.40;80.40;;;;;;5071379;28;19913;-78
2022/12/15 03:14:38;;;;;;;;;;;-3273.40;80.40;;;;;;5070966;28;19916;-78
2022/12/15 03:17:06;;;;;;;;;;;-3273.40;80.10;;;;;;5069781;28;19912;-78
2022/12/15 03:19:31;;;;;;;;;;;-3273.40;80.00;;;;;;5069367;28;20402;-78
2022/12/15 03:21:56;;;;;;;;;;;-3273.40;80.50;;;;;;5071468;28;19913;-78
2022/12/15 03:24:22;;;;;;;;;;;-3273.40;80.80;;;;;;5067006;28;20362;-79
2022/12/15 03:26:48;;;;;;;;;;;-3273.40;80.70;;;;;;5071331;28;20272;-79
2022/12/15 03:29:15;;;;;;;;;;;-3273.50;80.70;;;;;;5068569;28;19972;-79
2022/12/15 03:31:41;;;;;;;;;;;-3273.50;80.70;;;;;;5082989;28;19912;-78
2022/12/15 03:34:06;;;;;;;;;;;-3273.40;80.90;;;;;;5072056;28;20411;-79
2022/12/15 03:36:32;;;;;;;;;;;-3273.30;81.10;;;;;;5086678;28;19912;-77
2022/12/15 03:38:58;;;;;;;;;;;-3273.30;81.20;;;;;;5080704;28;19953;-78
2022/12/15 03:41:23;;;;;;;;;;;-3273.20;81.10;;;;;;5071570;28;19959;-79
2022/12/15 03:43:49;;;;;;;;;;;-3273.10;81.30;;;;;;5078657;28;19965;-79
2022/12/15 03:46:14;;;;;;;;;;;-3273.10;81.80;;;;;;5072457;28;19912;-79
2022/12/15 03:48:40;;;;;;;;;;;-3273.10;81.90;;;;;;5074681;28;20411;-79
2022/12/15 03:51:05;;;;;;;;;;;-3273.10;81.90;;;;;;5076091;28;19913;-79
2022/12/15 03:53:31;;;;;;;;;;;-3273.00;81.90;;;;;;5069709;28;19921;-79
2022/12/15 03:55:56;;;;;;;;;;;-3273.00;82.10;;;;;;5075171;28;20391;-79
2022/12/15 03:58:21;;;;;;;;;;;-3273.10;82.00;;;;;;5073919;28;19912;-79
2022/12/15 04:00:47;;;;;;;;;;;-3273.10;81.80;;;;;;5074371;28;19912;-79
2022/12/15 04:03:12;;;;;;;;;;;-3273.10;81.80;;;;;;5074233;28;19958;-79
2022/12/15 04:05:38;;;;;;;;;;;-3273.10;81.80;;;;;;5075723;28;19955;-78
2022/12/15 04:08:03;;;;;;;;;;;-3273.10;82.10;;;;;;5075268;28;20418;-79
2022/12/15 04:10:30;;;;;;;;;;;-3273.20;81.80;;;;;;5075622;28;19916;-78
2022/12/15 04:12:59;;;;;;;;;;;-3273.10;81.60;;;;;;5072203;28;19912;-78
2022/12/15 04:15:25;;;;;;;;;;;-3273.10;81.70;;;;;;5090135;28;19931;-78
2022/12/15 04:17:51;;;;;;;;;;;-3273.20;81.90;;;;;;5075912;28;20303;-78
2022/12/15 04:20:17;;;;;;;;;;;-3273.20;81.80;;;;;;5073410;28;19974;-79
2022/12/15 04:22:43;;;;;;;;;;;-3273.10;81.80;;;;;;5088165;28;20025;-79
2022/12/15 05:33:53;;;;;;;;;;;-3273.20;81.40;;;;;;5071414;28;19915;-79
2022/12/15 05:36:19;;;;;;;;;;;-3273.20;81.30;;;;;;5071762;28;19920;-79
2022/12/15 05:38:49;;;;;;;;;;;-3273.20;81.50;;;;;;5076496;28;20010;-79
2022/12/15 05:41:14;;;;;;;;;;;-3273.20;81.30;;;;;;5073201;28;19912;-79
2022/12/15 05:43:40;;;;;;;;;;;-3273.20;81.30;;;;;;5074481;28;19919;-79
2022/12/15 05:46:05;;;;;;;;;;;-3273.20;81.70;;;;;;5076466;28;19908;-79
2022/12/15 05:48:31;;;;;;;;;;;-3273.10;82.10;;;;;;5068624;28;19924;-79
2022/12/15 05:50:56;;;;;;;;;;;-3273.20;82.10;;;;;;5072725;28;19908;-79
2022/12/15 05:53:22;;;;;;;;;;;-3273.20;81.80;;;;;;5067783;28;19912;-78
2022/12/15 05:55:47;;;;;;;;;;;-3273.20;82.10;;;;;;5076155;28;19904;-78
2022/12/15 05:58:12;;;;;;;;;;;-3273.20;82.10;;;;;;5077804;28;19969;-79
2022/12/15 06:00:38;;;;;;;;;;;-3273.20;81.90;;;;;;5068337;28;19966;-78
2022/12/15 06:03:03;;;;;;;;;;;-3273.30;81.70;;;;;;5066821;28;19919;-81
2022/12/15 06:05:29;;;;;;;;;;;-3273.20;81.60;;;;;;5066047;28;20253;-78
2022/12/15 06:07:55;;;;;;;;;;;-3273.20;81.70;;;;;;5069008;28;19917;-78
2022/12/15 06:10:20;;;;;;;;;;;-3273.20;81.60;;;;;;5069520;28;20003;-78
2022/12/15 06:12:46;;;;;;;;;;;-3273.20;81.60;;;;;;5066628;28;19999;-77
2022/12/15 06:15:12;;;;;;;;;;;-3273.20;81.40;;;;;;5070976;28;19923;-77
2022/12/15 06:17:37;;;;;;;;;;;-3273.30;81.70;;;;;;5060726;28;19927;-78
2022/12/15 06:20:03;;;;;;;;;;;-3273.30;81.60;;;;;;5069501;28;19974;-78
2022/12/15 06:22:28;;;;;;;;;;;-3273.20;81.40;;;;;;5067274;28;19912;-79
2022/12/15 06:24:54;;;;;;;;;;;-3273.30;81.70;;;;;;5068523;28;19995;-78
2022/12/15 06:27:19;;;;;;;;;;;-3273.30;81.30;;;;;;5067050;28;19912;-79
2022/12/15 06:29:45;;;;;;;;;;;-3273.30;81.50;;;;;;5068070;28;19920;-79
2022/12/15 06:32:10;;;;;;;;;;;-3273.30;81.40;;;;;;5069235;28;20519;-80
2022/12/15 06:34:36;;;;;;;;;;;-3273.30;81.20;;;;;;5064739;28;19961;-87
2022/12/15 06:37:01;;;;;;;;;;;-3273.30;81.10;;;;;;5081219;28;19952;-80
2022/12/15 06:39:27;;;;;;;;;;;-3273.30;81.00;;;;;;5069732;28;19918;-80
2022/12/15 06:41:52;;;;;;;;;;;-3273.30;80.90;;;;;;5073578;28;20082;-79
2022/12/15 06:44:18;;;;;;;;;;;-3273.20;81.10;;;;;;5066722;28;19912;-79
2022/12/15 06:46:44;;;;;;;;;;;-3273.10;81.20;;;;;;5066595;28;20421;-82
2022/12/15 06:49:10;;;;;;;;;;;-3273.10;81.40;;;;;;5064361;28;19916;-77
2022/12/15 06:51:35;;;;;;;;;;;-3273.10;81.70;;;;;;5080225;28;19970;-79
2022/12/15 06:54:01;;;;;;;;;;;-3273.10;82.00;;;;;;5066692;28;19916;-79
2022/12/15 06:56:31;;;;;;;;;;;-3273.00;81.90;;;;;;5067984;28;19917;-77
2022/12/15 06:59:00;;;;;;;;;;;-3273.10;82.00;;;;;;5065362;28;19919;-80
2022/12/15 07:01:26;;;;;;;;;;;-3273.00;81.90;;;;;;5063175;28;20284;-80
2022/12/15 07:03:52;;;;;;;;;;;-3273.00;81.90;;;;;;5071467;28;19935;-81
2022/12/15 07:06:17;;;;;;;;;;;-3273.00;82.00;;;;;;5073648;28;19912;-80
2022/12/15 07:08:46;;;;;;;;;;;-3273.10;82.20;;;;;;5067509;23;20016;-83
2022/12/15 07:11:12;;;;;;;;;;;-3273.20;82.00;;;;;;5013150;28;20007;-83
2022/12/15 07:13:37;;;;;;;;;;;-3273.10;81.70;;;;;;5055428;28;20381;-82
2022/12/15 07:16:04;;;;;;;;;;;-3273.20;81.60;;;;;;5053014;28;19932;-82
2022/12/15 07:18:29;;;;;;;;;;;-3273.20;81.70;;;;;;5048680;28;19958;-84
2022/12/15 07:21:02;;;;;;;;;;;-3273.20;81.60;;;;;;5042521;28;19952;-83
2022/12/15 07:23:28;;;;;;;;;;;-3273.20;81.60;;;;;;5047883;28;19924;-84
2022/12/15 07:25:53;;;;;;;;;;;-3273.20;81.60;;;;;;5017546;28;19921;-85
2022/12/15 07:28:19;;;;;;;;;;;-3273.20;81.70;;;;;;5041811;28;19913;-85
2022/12/15 07:30:44;;;;;;;;;;;-3273.20;81.70;;;;;;5031610;28;19952;-83
2022/12/15 07:33:09;;;;;;;;;;;-3273.20;81.60;;;;;;5053752;28;19935;-83
2022/12/15 07:35:35;;;;;;;;;;;-3273.20;81.60;;;;;;5044621;28;19956;-84
2022/12/15 07:38:04;;;;;;;;;;;-3273.20;81.70;;;;;;5011065;28;19914;-86
2022/12/15 07:40:29;;;;;;;;;;;-3273.20;81.80;;;;;;5042264;28;19913;-85
2022/12/15 07:42:55;;;;;;;;;;;-3273.30;81.80;;;;;;5038456;28;19917;-85
2022/12/15 07:45:20;;;;;;;;;;;-3273.20;81.50;;;;;;5033745;28;19963;-85
2022/12/15 07:47:48;;;;;;;;;;;-3273.20;81.70;;;;;;5036066;28;19945;-85
2022/12/15 07:50:14;;;;;;;;;;;-3273.30;81.70;;;;;;5032941;28;19913;-85
2022/12/15 07:52:39;;;;;;;;;;;-3273.40;81.60;;;;;;5046321;28;19920;-85
2022/12/15 07:55:05;;;;;;;;;;;-3273.30;81.20;;;;;;5044174;28;19917;-85
2022/12/15 07:57:31;;;;;;;;;;;-3273.40;81.20;;;;;;5040999;28;19917;-85
2022/12/15 07:59:57;;;;;;;;;;;-3273.40;81.10;;;;;;5044571;28;19978;-85
2022/12/15 08:02:22;;;;;;;;;;;-3273.40;81.00;;;;;;5041380;28;20350;-85
2022/12/15 08:04:48;;;;;;;;;;;-3273.40;81.10;;;;;;5044512;28;19913;-85
2022/12/15 08:07:13;;;;;;;;;;;-3273.40;81.00;;;;;;5031814;28;19920;-83
2022/12/15 08:09:38;;;;;;;;;;;-3273.40;81.20;;;;;;5056892;28;19905;-84
2022/12/15 08:12:04;;;;;;;;;;;-3273.40;81.10;;;;;;5058431;28;19904;-83
2022/12/15 08:14:31;;;;;;;;;;;-3273.30;81.30;;;;;;5033803;28;19914;-84
2022/12/15 08:16:56;;;;;;;;;;;-3273.40;81.50;;;;;;5033415;28;19921;-85
2022/12/15 08:19:22;;;;;;;;;;;-3273.40;81.50;;;;;;5016873;28;20351;-84
2022/12/15 08:21:47;;;;;;;;;;;-3273.50;81.40;;;;;;5011413;28;19914;-85
2022/12/15 08:24:13;;;;;;;;;;;-3273.50;81.40;;;;;;5037306;28;20031;-84
2022/12/15 08:26:39;;;;;;;;;;;-3273.50;81.30;;;;;;5016775;28;19931;-83
2022/12/15 08:29:05;;;;;;;;;;;-3273.50;81.50;;;;;;5038014;28;20395;-85
2022/12/15 08:31:32;;;;;;;;;;;-3273.50;81.60;;;;;;5041099;28;20394;-85
2022/12/15 08:33:57;;;;;;;;;;;-3273.50;81.40;;;;;;5038757;28;19928;-85
2022/12/15 08:36:23;;;;;;;;;;;-3273.50;81.70;;;;;;5041065;28;19916;-83
2022/12/15 08:38:48;;;;;;;;;;;-3273.50;81.80;;;;;;5024807;28;19920;-84
2022/12/15 08:41:18;;;;;;;;;;;-3273.60;81.80;;;;;;5043302;28;19912;-83
2022/12/15 08:43:45;;;;;;;;;;;-3273.70;81.30;;;;;;5048183;28;20332;-83
2022/12/15 08:46:11;;;;;;;;;;;-3273.70;81.20;;;;;;5040993;28;20275;-84
2022/12/15 08:48:37;;;;;;;;;;;-3273.70;81.20;;;;;;5043342;28;20017;-84
2022/12/15 08:51:02;;;;;;;;;;;-3273.70;81.30;;;;;;5046164;28;20457;-82
2022/12/15 08:53:28;;;;;;;;;;;-3273.80;81.10;;;;;;5018275;28;19921;-82
2022/12/15 08:55:53;;;;;;;;;;;-3273.90;81.30;;;;;;5044246;28;20035;-83
2022/12/15 08:58:19;;;;;;;;;;;-3273.90;81.20;;;;;;5027533;28;19962;-82
2022/12/15 09:00:44;;;;;;;;;;;-3273.90;81.00;;;;;;5030849;28;19943;-83
2022/12/15 09:03:10;;;;;;;;;;;-3274.00;80.80;;;;;;5027037;28;19920;-82
2022/12/15 09:05:36;;;;;;;;;;;-3274.00;80.90;;;;;;5016955;28;20415;-83
2022/12/15 09:08:01;;;;;;;;;;;-3274.10;80.90;;;;;;5028882;28;20015;-82
2022/12/15 09:10:27;;;;;;;;;;;-3274.20;80.90;;;;;;5018665;28;19940;-83
2022/12/15 09:12:52;;;;;;;;;;;-3274.20;80.60;;;;;;5035608;28;19960;-83
2022/12/15 09:15:18;;;;;;;;;;;-3274.20;80.50;;;;;;5039547;28;19917;-83
2022/12/15 09:17:44;;;;;;;;;;;-3274.20;80.60;;;;;;5024596;28;19913;-83
2022/12/15 09:20:10;;;;;;;;;;;-3274.30;80.60;;;;;;5039291;28;19948;-83
2022/12/15 09:22:35;;;;;;;;;;;-3274.30;80.40;;;;;;5049622;28;20400;-83
2022/12/15 09:25:01;;;;;;;;;;;-3274.20;80.50;;;;;;5019457;28;20275;-83
2022/12/15 09:27:29;;;;;;;;;;;-3274.30;80.50;;;;;;5022061;28;19993;-84
2022/12/15 09:29:55;;;;;;;;;;;-3274.30;80.30;;;;;;5022840;28;19917;-83
2022/12/15 09:32:20;;;;;;;;;;;-3274.40;80.00;;;;;;5030928;28;19924;-82
2022/12/15 09:34:46;;;;;;;;;;;-3274.40;80.10;;;;;;5017919;28;19913;-83
2022/12/15 09:37:12;;;;;;;;;;;-3274.50;80.00;;;;;;5015465;28;20341;-81
2022/12/15 09:39:38;;;;;;;;;;;-3274.50;80.00;;;;;;5033291;28;20228;-82
2022/12/15 09:42:04;;;;;;;;;;;-3274.50;79.90;;;;;;5023759;28;20321;-84
2022/12/15 09:44:31;;;;;;;;;;;-3274.60;79.90;;;;;;5037869;28;19913;-84
2022/12/15 09:47:05;;;;;;;;;;;-3274.70;79.40;;;;;;5040384;28;19924;-84
2022/12/15 09:49:42;;;;;;;;;;;-3274.70;79.40;;;;;;5047202;28;20003;-84
2022/12/15 09:52:18;;;;;;;;;;;-3274.80;79.50;;;;;;5025983;28;19959;-87
2022/12/15 09:54:44;;;;;;;;;;;-3274.70;79.60;;;;;;5049949;28;19912;-82
2022/12/15 09:57:18;;;;;;;;;;;-3274.80;79.70;;;;;;5031858;28;19967;-85
2022/12/15 09:59:49;;;;;;;;;;;-3274.90;79.80;;;;;;5036459;28;19913;-85
2022/12/15 10:02:17;;;;;;;;;;;-3274.90;79.40;;;;;;5037632;28;20195;-84
2022/12/15 10:04:51;;;;;;;;;;;-3275.00;79.20;;;;;;5042194;28;19936;-84
2022/12/15 10:07:23;;;;;;;;;;;-3275.00;78.50;;;;;;5040457;28;20015;-83
2022/12/15 10:09:49;;;;;;;;;;;-3275.10;78.30;;;;;;5046819;28;20004;-85
2022/12/15 10:12:22;;;;;;;;;;;-3275.10;78.30;;;;;;5042265;28;19944;-81
2022/12/15 10:14:53;;;;;;;;;;;-3275.10;78.50;;;;;;5037188;28;19920;-84
2022/12/15 10:17:35;;;;;;;;;;;-3275.20;78.50;;;;;;5044780;28;19928;-83
2022/12/15 10:20:04;;;;;;;;;;;-3275.30;78.40;;;;;;5018102;28;20387;-84
2022/12/15 10:22:31;;;;;;;;;;;-3275.40;77.70;;;;;;5044070;28;19913;-83
2022/12/15 10:25:00;;;;;;;;;;;-3275.50;77.40;;;;;;5059036;28;20203;-82
2022/12/15 10:27:26;;;;;;;;;;;-3275.50;77.10;;;;;;5048824;28;20020;-86
2022/12/15 10:29:56;;;;;;;;;;;-3275.50;77.10;;;;;;5051360;28;19951;-83
2022/12/15 10:32:29;;;;;;;;;;;-3275.50;77.10;;;;;;5040697;28;19921;-83
2022/12/15 10:34:54;;;;;;;;;;;-3275.50;77.10;;;;;;5044057;28;19963;-84
2022/12/15 10:37:20;;;;;;;;;;;-3275.60;77.10;;;;;;5044033;28;19909;-83
2022/12/15 10:39:46;;;;;;;;;;;-3275.70;77.00;;;;;;5052050;28;19920;-83
2022/12/15 10:42:20;;;;;;;;;;;-3275.70;76.60;;;;;;5045378;28;19913;-84
2022/12/15 10:44:46;;;;;;;;;;;-3275.80;76.40;;;;;;5040917;28;19917;-83
2022/12/15 10:47:28;;;;;;;;;;;-3275.90;76.10;;;;;;5039976;28;19918;-83
2022/12/15 10:49:54;;;;;;;;;;;-3275.90;75.90;;;;;;5044895;28;19944;-82
2022/12/15 10:52:31;;;;;;;;;;;-3276.00;75.60;;;;;;5028353;28;19935;-83
2022/12/15 10:54:56;;;;;;;;;;;-3276.00;75.20;;;;;;5059212;28;19913;-83
2022/12/15 10:57:26;;;;;;;;;;;-3276.00;75.20;;;;;;5042815;28;19980;-82
2022/12/15 10:59:52;;;;;;;;;;;-3276.10;75.30;;;;;;5024775;28;20357;-82
2022/12/15 11:02:22;;;;;;;;;;;-3276.00;75.60;;;;;;5043640;28;19917;-82
2022/12/15 11:05:06;;;;;;;;;;;-3276.20;75.60;;;;;;5043067;28;20204;-82
2022/12/15 11:07:37;;;;;;;;;;;-3276.10;75.70;;;;;;5040667;28;19920;-82
2022/12/15 11:10:12;;;;;;;;;;;-3276.20;76.10;;;;;;5051626;28;19966;-83
2022/12/15 11:12:53;;;;;;;;;;;-3276.20;76.00;;;;;;5043589;28;19921;-83
2022/12/15 11:15:18;;;;;;;;;;;-3276.20;75.80;;;;;;5042539;28;19960;-82
2022/12/15 11:17:44;;;;;;;;;;;-3276.40;75.60;;;;;;5042642;28;19975;-81
2022/12/15 11:20:15;;;;;;;;;;;-3276.50;75.60;;;;;;5052475;28;19913;-82
2022/12/15 11:22:45;;;;;;;;;;;-3276.60;74.80;;;;;;5041454;28;19961;-82
2022/12/15 11:25:10;;;;;;;;;;;-3276.70;74.50;;;;;;5020838;28;19921;-82
2022/12/15 11:27:42;;;;;;;;;;;0.00;74.20;;;;;;5033274;28;19902;-82
2022/12/15 11:30:13;;;;;;;;;;;0.00;73.80;;;;;;5058722;28;19978;-80
2022/12/15 11:32:41;;;;;;;;;;;0.00;74.10;;;;;;5043966;28;19928;-82
2022/12/15 11:35:33;;;;;;;;;;;0.00;73.90;;;;;;5039072;28;19988;-82
2022/12/15 11:38:15;;;;;;;;;;;0.00;73.90;;;;;;5021021;28;19971;-82
2022/12/15 11:40:41;;;;;;;;;;;0.00;74.00;;;;;;5020212;28;19921;-82
2022/12/15 11:43:25;;;;;;;;;;;0.00;74.50;;;;;;5042617;28;19913;-82
2022/12/15 11:46:00;;;;;;;;;;;0.20;74.50;;;;;;5041921;28;19925;-82
2022/12/15 11:48:39;;;;;;;;;;;0.20;73.80;;;;;;5043339;28;20012;-82
2022/12/15 11:51:10;;;;;;;;;;;0.20;74.30;;;;;;5044623;28;19917;-83
2022/12/15 11:53:48;;;;;;;;;;;0.20;74.30;;;;;;5043705;28;19976;-82
2022/12/15 11:56:27;;;;;;;;;;;0.20;74.80;;;;;;5047750;28;19976;-82
2022/12/15 11:59:02;;;;;;;;;;;0.20;75.00;;;;;;5022245;28;19971;-82
2022/12/15 12:01:54;;;;;;;;;;;0.30;74.60;;;;;;5022006;28;19917;-83
2022/12/15 12:04:19;;;;;;;;;;;0.30;74.40;;;;;;5012112;28;19917;-84
2022/12/15 12:06:48;;;;;;;;;;;0.40;74.70;;;;;;5044085;28;20445;-84
2022/12/15 12:09:19;;;;;;;;;;;0.40;74.20;;;;;;5046795;28;19943;-83
2022/12/15 12:11:50;;;;;;;;;;;0.50;74.40;;;;;;5024301;28;19920;-83
2022/12/15 12:14:25;;;;;;;;;;;0.60;74.10;;;;;;5022934;28;19939;-83
2022/12/15 12:16:54;;;;;;;;;;;0.60;74.20;;;;;;5038890;28;19928;-83
2022/12/15 12:19:26;;;;;;;;;;;0.80;73.90;;;;;;5019920;28;19944;-81
2022/12/15 12:21:55;;;;;;;;;;;0.90;73.60;;;;;;5019358;28;19917;-82
2022/12/15 12:24:25;;;;;;;;;;;0.90;73.60;;;;;;5025232;28;19913;-82
2022/12/15 12:26:55;;;;;;;;;;;0.80;73.80;;;;;;5041519;28;19925;-82
2022/12/15 12:29:28;;;;;;;;;;;0.80;73.70;;;;;;5041834;28;19916;-81
2022/12/15 12:32:01;;;;;;;;;;;0.80;73.70;;;;;;5048695;28;19921;-81
2022/12/15 12:34:46;;;;;;;;;;;0.70;74.20;;;;;;5025618;28;19956;-82
2022/12/15 12:37:33;;;;;;;;;;;0.70;74.40;;;;;;5020863;28;20398;-82
2022/12/15 12:40:01;;;;;;;;;;;0.80;74.60;;;;;;5032456;28;19920;-81
2022/12/15 12:42:32;;;;;;;;;;;0.70;74.40;;;;;;5034991;28;19917;-80
2022/12/15 12:45:00;;;;;;;;;;;0.90;74.30;;;;;;5017518;28;20027;-81
2022/12/15 12:47:28;;;;;;;;;;;0.90;73.80;;;;;;5021461;28;20039;-82
2022/12/15 12:49:56;;;;;;;;;;;0.90;74.10;;;;;;5031783;28;19913;-82
2022/12/15 12:52:24;;;;;;;;;;;0.90;73.70;;;;;;5022669;28;19921;-86
2022/12/15 12:54:52;;;;;;;;;;;0.90;73.70;;;;;;5035047;28;19952;-82
2022/12/15 12:57:37;;;;;;;;;;;0.80;73.90;;;;;;5039732;28;20031;-81
2022/12/15 13:00:19;;;;;;;;;;;0.80;73.90;;;;;;5052217;28;20393;-83
2022/12/15 13:02:50;;;;;;;;;;;0.70;74.30;;;;;;5039099;28;20004;-83
2022/12/15 13:05:22;;;;;;;;;;;0.80;74.30;;;;;;5049016;28;19999;-83
2022/12/15 13:08:06;;;;;;;;;;;0.90;73.90;;;;;;5018279;28;20016;-82
2022/12/15 13:10:31;;;;;;;;;;;0.90;74.10;;;;;;5038918;22;20381;-78
2022/12/15 13:12:58;;;;;;;;;;;0.80;74.10;;;;;;5030930;28;19929;-79
2022/12/15 13:15:26;;;;;;;;;;;0.80;74.40;;;;;;5036914;28;19917;-79
2022/12/15 13:17:59;;;;;;;;;;;0.80;74.40;;;;;;5030949;28;19917;-79
2022/12/15 13:20:26;;;;;;;;;;;0.80;74.60;;;;;;5029471;28;20011;-79
2022/12/15 13:22:52;;;;;;;;;;;0.80;74.50;;;;;;5031769;28;20394;-79
2022/12/15 13:25:36;;;;;;;;;;;0.90;74.70;;;;;;5028279;28;19913;-79
2022/12/15 13:28:20;;;;;;;;;;;0.90;74.80;;;;;;5033103;28;19913;-79
2022/12/15 13:31:04;;;;;;;;;;;0.90;75.10;;;;;;5032445;28;19917;-80
2022/12/15 13:33:30;;;;;;;;;;;0.90;75.20;;;;;;5024968;28;19913;-80
2022/12/15 13:35:56;;;;;;;;;;;0.90;75.10;;;;;;5040390;28;19971;-79
2022/12/15 13:38:41;;;;;;;;;;;0.90;75.30;;;;;;5032417;28;19909;-78
2022/12/15 13:41:20;;;;;;;;;;;0.90;75.20;;;;;;5027479;28;19913;-77
2022/12/15 13:43:47;;;;;;;;;;;1.10;74.90;;;;;;5030319;28;19921;-79
2022/12/15 13:46:19;;;;;;;;;;;1.10;74.90;;;;;;5026523;28;20297;-78
2022/12/15 13:48:46;;;;;;;;;;;1.10;75.20;;;;;;5046261;28;19972;-77
2022/12/15 13:51:20;;;;;;;;;;;1.00;75.20;;;;;;5028094;28;19967;-78
2022/12/15 13:53:47;;;;;;;;;;;1.10;75.20;;;;;;5027090;28;19922;-79
2022/12/15 13:56:12;;;;;;;;;;;1.10;74.90;;;;;;5034390;28;19981;-78
2022/12/15 13:58:56;;;;;;;;;;;1.10;74.80;;;;;;5047215;28;19901;-77
2022/12/15 14:01:25;;;;;;;;;;;1.10;74.60;;;;;;5030900;28;20303;-79
2022/12/15 14:04:14;;;;;;;;;;;1.10;74.60;;;;;;5031708;28;19914;-82
2022/12/15 14:06:51;;;;;;;;;;;1.10;74.50;;;;;;5027947;28;19996;-80
2022/12/15 14:09:37;;;;;;;;;;;1.00;75.00;;;;;;5027710;28;19926;-81
2022/12/15 14:12:04;;;;;;;;;;;0.90;75.10;;;;;;5030893;28;19921;-79
2022/12/15 14:14:34;;;;;;;;;;;0.90;75.20;;;;;;5025893;28;20454;-81
2022/12/15 14:17:01;;;;;;;;;;;0.90;75.40;;;;;;5028208;28;19924;-80
2022/12/15 14:19:35;;;;;;;;;;;0.90;75.60;;;;;;5028449;28;19952;-81
2022/12/15 14:22:01;;;;;;;;;;;0.80;75.50;;;;;;5025079;28;20428;-79
2022/12/15 14:24:28;;;;;;;;;;;0.80;75.70;;;;;;5041716;28;19912;-78
2022/12/15 14:26:54;;;;;;;;;;;0.80;75.90;;;;;;5049182;28;19980;-77
2022/12/15 14:29:19;;;;;;;;;;;0.80;76.10;;;;;;5049701;28;19928;-78
2022/12/15 14:31:50;;;;;;;;;;;0.80;76.00;;;;;;5025310;28;19917;-80
2022/12/15 14:34:40;;;;;;;;;;;0.70;76.20;;;;;;5024332;28;19971;-81
2022/12/15 14:37:07;;;;;;;;;;;0.60;76.50;;;;;;5015037;28;19921;-78
2022/12/15 14:39:35;;;;;;;;;;;0.60;76.80;;;;;;5026589;28;19996;-81
2022/12/15 14:42:00;;;;;;;;;;;0.50;77.40;;;;;;5029514;28;19924;-81
2022/12/15 14:44:28;;;;;;;;;;;0.50;77.70;;;;;;5028134;28;19913;-81
2022/12/15 14:46:54;;;;;;;;;;;0.40;77.90;;;;;;5035381;28;19909;-79
2022/12/15 14:49:28;;;;;;;;;;;0.40;78.40;;;;;;5041543;28;19924;-78
2022/12/15 14:51:58;;;;;;;;;;;0.30;78.40;;;;;;5034454;28;19913;-78
2022/12/15 14:54:30;;;;;;;;;;;0.20;78.70;;;;;;5032663;28;20378;-79
2022/12/15 14:56:58;;;;;;;;;;;0.10;78.90;;;;;;5032079;28;19917;-79
2022/12/15 14:59:23;;;;;;;;;;;0.10;79.10;;;;;;5025705;28;19921;-79
2022/12/15 15:01:50;;;;;;;;;;;0.00;79.30;;;;;;5037411;28;19940;-80
2022/12/15 15:04:22;;;;;;;;;;;0.00;79.70;;;;;;5027166;28;19913;-78
2022/12/15 15:06:52;;;;;;;;;;;0.00;79.50;;;;;;5028017;28;19952;-81
2022/12/15 15:09:17;;;;;;;;;;;0.00;79.70;;;;;;5024877;28;20493;-81
2022/12/15 15:11:43;;;;;;;;;;;0.00;79.90;;;;;;5021346;28;19964;-79
2022/12/15 15:14:28;;;;;;;;;;;0.20;78.90;;;;;;5039271;28;19945;-79
2022/12/15 15:17:03;;;;;;;;;;;0.20;78.30;;;;;;5039675;28;19924;-79
2022/12/15 15:19:29;;;;;;;;;;;0.30;77.70;;;;;;5026352;28;19921;-78
2022/12/15 15:21:54;;;;;;;;;;;0.40;77.20;;;;;;5024593;28;19913;-80
2022/12/15 15:24:24;;;;;;;;;;;0.30;77.30;;;;;;5034466;28;19920;-79
2022/12/15 15:26:50;;;;;;;;;;;0.20;77.70;;;;;;5048649;28;19916;-80
2022/12/15 15:29:34;;;;;;;;;;;0.20;77.80;;;;;;5051170;28;19928;-81
2022/12/15 15:32:04;;;;;;;;;;;0.20;78.00;;;;;;5030414;28;19959;-83
2022/12/15 15:34:29;;;;;;;;;;;0.20;77.70;;;;;;5037121;28;19936;-84
2022/12/15 15:36:55;;;;;;;;;;;0.10;78.10;;;;;;5034617;28;20373;-83
2022/12/15 15:39:22;;;;;;;;;;;0.00;78.30;;;;;;5037165;28;20437;-84
2022/12/15 15:41:47;;;;;;;;;;;0.00;78.30;;;;;;5036747;28;20003;-83
2022/12/15 15:44:14;;;;;;;;;;;-3276.70;78.40;;;;;;5036175;28;19952;-83
2022/12/15 15:46:47;;;;;;;;;;;-3276.60;78.70;;;;;;5045699;28;19967;-84
2022/12/15 15:49:15;;;;;;;;;;;-3276.50;79.20;;;;;;5054721;28;19935;-83
2022/12/15 15:51:41;;;;;;;;;;;-3276.50;79.00;;;;;;5040888;28;19921;-83
2022/12/15 15:54:09;;;;;;;;;;;-3276.40;79.00;;;;;;5038858;28;19913;-83
2022/12/15 15:56:35;;;;;;;;;;;-3276.40;79.30;;;;;;5038190;28;20579;-82
2022/12/15 15:59:08;;;;;;;;;;;-3276.30;79.50;;;;;;5030465;28;19959;-83
2022/12/15 16:01:33;;;;;;;;;;;-3276.30;79.70;;;;;;5037124;28;19913;-80
2022/12/15 16:03:59;;;;;;;;;;;-3276.20;79.80;;;;;;5037035;28;20272;-83
2022/12/15 16:06:24;;;;;;;;;;;-3276.20;79.90;;;;;;5051957;28;19944;-82
2022/12/15 16:08:52;;;;;;;;;;;-3276.20;79.90;;;;;;5028874;28;19917;-80
2022/12/15 16:11:19;;;;;;;;;;;-3276.20;80.10;;;;;;5027828;28;19921;-82
2022/12/15 16:13:44;;;;;;;;;;;-3276.10;80.10;;;;;;5024461;28;20172;-79
2022/12/15 16:16:20;;;;;;;;;;;-3276.10;80.20;;;;;;5027560;28;19924;-80
2022/12/15 16:18:46;;;;;;;;;;;-3276.00;80.00;;;;;;5024722;28;19917;-80
2022/12/15 16:21:12;;;;;;;;;;;-3275.90;80.20;;;;;;5035176;28;19932;-80
2022/12/15 16:23:39;;;;;;;;;;;-3275.90;80.40;;;;;;5061540;28;19927;-80
2022/12/15 16:26:09;;;;;;;;;;;-3275.90;80.70;;;;;;5064524;28;19918;-81
2022/12/15 16:28:34;;;;;;;;;;;-3275.90;80.80;;;;;;5042306;28;19939;-81